createdAt,value
2022-08-03T00:04:33.938Z,100027.31
2022-08-03T00:09:36.347Z,100031.84
2022-08-03T00:14:38.097Z,100033.03
2022-08-03T00:19:39.788Z,100031.53
2022-08-03T00:24:41.582Z,100030.81
2022-08-03T00:29:59.657Z,100032.63
2022-08-03T00:35:04.344Z,100026.00
2022-08-03T00:40:15.722Z,100028.03
2022-08-03T00:45:27.878Z,100026.47
2022-08-03T00:50:34.663Z,100024.88
2022-08-03T00:55:37.295Z,100013.91
2022-08-03T01:00:40.565Z,100020.97
2022-08-03T01:05:52.625Z,100013.47
2022-08-03T01:11:15.808Z,100026.56
2022-08-03T01:16:35.686Z,100025.91
2022-08-03T01:22:18.083Z,100024.47
2022-08-03T01:27:25.929Z,100020.41
2022-08-03T01:32:59.978Z,100021.28
2022-08-03T01:38:05.841Z,100019.78
2022-08-03T01:43:10.779Z,100020.66
2022-08-03T01:48:17.072Z,100018.25
2022-08-03T01:53:21.225Z,100019.28
2022-08-03T01:58:25.040Z,100023.59
2022-08-03T02:03:28.890Z,100014.47
2022-08-03T02:08:31.256Z,100012.88
2022-08-03T02:13:34.864Z,100010.50
2022-08-03T02:18:39.641Z,100002.94
2022-08-03T02:23:41.989Z,100015.84
2022-08-03T02:28:47.613Z,100014.25
2022-08-03T02:34:00.920Z,100012.69
2022-08-03T02:39:05.115Z,100008.56
2022-08-03T02:44:09.600Z,100014.63
2022-08-03T02:49:41.076Z,100015.63
2022-08-03T02:54:38.199Z,100019.06
2022-08-03T02:59:41.184Z,100015.78
2022-08-03T03:05:51.745Z,100020.22
2022-08-03T03:10:07.958Z,100028.19
2022-08-03T03:15:10.559Z,100030.94
2022-08-03T03:20:12.841Z,100024.25
2022-08-03T03:25:15.678Z,100025.38
2022-08-03T03:30:17.416Z,100028.75
2022-08-03T03:35:19.326Z,100031.38
2022-08-03T03:40:22.232Z,100028.03
2022-08-03T03:45:24.533Z,100038.53
2022-08-03T03:50:27.414Z,100037.09
2022-08-03T03:55:29.320Z,100045.22
2022-08-03T04:00:31.360Z,100037.97
2022-08-03T04:05:51.826Z,100040.97
2022-08-03T04:11:13.206Z,100040.22
2022-08-03T04:16:18.289Z,100051.34
2022-08-03T04:21:23.558Z,100048.81
2022-08-03T04:26:29.391Z,100051.06
2022-08-03T04:31:32.405Z,100048.78
2022-08-03T04:36:40.004Z,100058.25
2022-08-03T04:42:07.244Z,100060.19
2022-08-03T04:47:06.941Z,100065.47
2022-08-03T04:52:10.146Z,100062.69
2022-08-03T04:57:22.081Z,100071.81
2022-08-03T05:02:25.384Z,100067.22
2022-08-03T05:07:35.673Z,100067.91
2022-08-03T05:12:39.147Z,100073.25
2022-08-03T05:17:41.153Z,100063.16
2022-08-03T05:22:42.970Z,100064.41
2022-08-03T05:27:44.829Z,100070.88
2022-08-03T05:32:46.534Z,100073.97
2022-08-03T05:37:54.835Z,100073.88
2022-08-03T05:42:57.641Z,100075.41
2022-08-03T05:47:59.992Z,100073.47
2022-08-03T05:53:01.865Z,100078.34
2022-08-03T05:58:04.092Z,100070.75
2022-08-03T06:03:06.745Z,100076.94
2022-08-03T06:08:08.593Z,100084.41
2022-08-03T06:13:10.418Z,100073.88
2022-08-03T06:18:12.444Z,100079.72
2022-08-03T06:23:17.567Z,100075.19
2022-08-03T06:28:51.620Z,100076.09
2022-08-03T06:34:30.213Z,100079.69
2022-08-03T06:39:04.583Z,100085.41
2022-08-03T06:44:06.419Z,100088.56
2022-08-03T06:49:08.325Z,100088.91
2022-08-03T06:54:10.905Z,100093.28
2022-08-03T07:00:10.827Z,100091.38
2022-08-03T07:04:34.178Z,100087.69
2022-08-03T07:09:35.916Z,100090.28
2022-08-03T07:14:37.763Z,100101.44
2022-08-03T07:19:39.701Z,100096.06
2022-08-03T07:24:44.750Z,100098.41
2022-08-03T07:29:46.594Z,100091.94
2022-08-03T07:34:48.322Z,100096.78
2022-08-03T07:39:50.160Z,100088.72
2022-08-03T07:44:52.157Z,100093.13
2022-08-03T07:49:54.476Z,100077.81
2022-08-03T07:54:56.250Z,100081.06
2022-08-03T08:00:02.416Z,100086.75
2022-08-03T08:05:13.818Z,100079.25
2022-08-03T08:10:15.761Z,100082.59
2022-08-03T08:15:17.462Z,100084.44
2022-08-03T08:20:30.753Z,100077.88
2022-08-03T08:25:34.181Z,100079.97
2022-08-03T08:30:36.561Z,100080.75
2022-08-03T08:35:38.565Z,100075.50
2022-08-03T08:40:40.930Z,100081.47
2022-08-03T08:45:42.683Z,100083.97
2022-08-03T08:50:45.310Z,100083.09
2022-08-03T08:55:58.447Z,100075.66
2022-08-03T09:01:01.836Z,100083.28
2022-08-03T09:06:04.399Z,100078.03
2022-08-03T09:11:11.115Z,100073.44
2022-08-03T09:16:17.562Z,100073.06
2022-08-03T09:21:33.602Z,100060.97
2022-08-03T09:26:37.611Z,100069.59
2022-08-03T09:31:43.046Z,100058.28
2022-08-03T09:36:47.703Z,100053.50
2022-08-03T09:42:05.447Z,100049.44
2022-08-03T09:47:07.180Z,100048.28
2022-08-03T09:52:32.692Z,100043.25
2022-08-03T09:57:40.954Z,100042.47
2022-08-03T10:02:46.716Z,100041.78
2022-08-03T10:07:49.981Z,100035.28
2022-08-03T10:12:52.561Z,100025.72
2022-08-03T10:17:54.209Z,100015.16
2022-08-03T10:22:56.822Z,100014.28
2022-08-03T10:28:02.144Z,100009.81
2022-08-03T10:33:50.217Z,100014.81
2022-08-03T10:38:53.101Z,100010.78
2022-08-03T10:44:09.617Z,100004.13
2022-08-03T10:49:34.543Z,100000.81
2022-08-03T10:54:37.233Z,99996.94
2022-08-03T10:59:57.776Z,99986.56
2022-08-03T11:05:26.216Z,99989.09
2022-08-03T11:10:31.936Z,99980.72
2022-08-03T11:15:35.927Z,99978.47
2022-08-03T11:20:59.319Z,99971.78
2022-08-03T11:26:10.853Z,99977.91
2022-08-03T11:31:49.942Z,99979.44
2022-08-03T11:37:22.559Z,99973.63
2022-08-03T11:42:24.724Z,99978.84
2022-08-03T11:47:28.773Z,99980.00
2022-08-03T11:52:38.781Z,99971.34
2022-08-03T11:59:16.588Z,99968.34
2022-08-03T12:03:05.982Z,99964.03
2022-08-03T12:08:09.557Z,99961.53
2022-08-03T12:14:10.734Z,99954.34
2022-08-03T12:18:33.544Z,99965.22
2022-08-03T12:23:37.981Z,99959.66
2022-08-03T12:28:49.861Z,99950.66
2022-08-03T12:34:10.004Z,99941.09
2022-08-03T12:39:12.021Z,99942.13
2022-08-03T12:44:13.929Z,99943.44
2022-08-03T12:49:18.696Z,99930.59
2022-08-03T12:54:24.356Z,99937.63
2022-08-03T12:59:32.529Z,99930.53
2022-08-03T13:04:37.178Z,99922.47
2022-08-03T13:09:46.995Z,99915.72
2022-08-03T13:14:51.889Z,99919.81
2022-08-03T13:19:53.818Z,99912.31
2022-08-03T13:24:57.760Z,99913.94
2022-08-03T13:29:59.590Z,99908.44
2022-08-03T13:35:02.786Z,99908.97
2022-08-03T13:40:11.583Z,99910.50
2022-08-03T13:45:13.724Z,99901.81
2022-08-03T13:50:15.594Z,99897.72
2022-08-03T13:55:17.430Z,99886.00
2022-08-03T14:00:27.513Z,99885.09
2022-08-03T14:05:32.076Z,99882.25
2022-08-03T14:10:40.018Z,99883.88
2022-08-03T14:15:42.344Z,99880.22
2022-08-03T14:20:56.189Z,99870.63
2022-08-03T14:25:59.038Z,99869.94
2022-08-03T14:31:01.676Z,99877.72
2022-08-03T14:36:18.205Z,99862.91
2022-08-03T14:41:22.244Z,99866.56
2022-08-03T14:46:24.198Z,99864.81
2022-08-03T14:51:26.060Z,99851.50
2022-08-03T14:56:33.713Z,99848.53
2022-08-03T15:02:04.903Z,99847.47
2022-08-03T15:06:57.294Z,99847.69
2022-08-03T15:11:59.056Z,99850.41
2022-08-03T15:17:01.120Z,99847.69
2022-08-03T15:22:02.930Z,99851.44
2022-08-03T15:27:08.582Z,99844.59
2022-08-03T15:32:10.273Z,99843.06
2022-08-03T15:37:16.418Z,99840.94
2022-08-03T15:42:24.960Z,99846.72
2022-08-03T15:47:27.033Z,99842.81
2022-08-03T15:52:30.919Z,99848.84
2022-08-03T15:57:32.882Z,99839.25
2022-08-03T16:02:35.554Z,99831.81
2022-08-03T16:08:02.619Z,99826.69
2022-08-03T16:13:05.056Z,99819.84
2022-08-03T16:18:07.887Z,99826.25
2022-08-03T16:23:11.383Z,99825.63
2022-08-03T16:28:15.093Z,99827.06
2022-08-03T16:33:17.920Z,99825.16
2022-08-03T16:38:19.914Z,99822.75
2022-08-03T16:43:25.278Z,99826.38
2022-08-03T16:48:27.155Z,99828.75
2022-08-03T16:53:51.676Z,99829.78
2022-08-03T16:58:50.597Z,99831.94
2022-08-03T17:04:02.312Z,99835.19
2022-08-03T17:09:13.908Z,99838.47
2022-08-03T17:14:21.907Z,99847.13
2022-08-03T17:19:24.916Z,99841.50
2022-08-03T17:24:34.996Z,99846.53
2022-08-03T17:29:45.227Z,99847.63
2022-08-03T17:34:48.865Z,99845.97
2022-08-03T17:39:59.608Z,99843.19
2022-08-03T17:45:03.961Z,99849.34
2022-08-03T17:50:23.912Z,99841.81
2022-08-03T17:55:56.991Z,99852.25
2022-08-03T18:02:00.650Z,99852.34
2022-08-03T18:06:37.900Z,99849.16
2022-08-03T18:12:00.920Z,99859.69
2022-08-03T18:17:06.582Z,99865.72
2022-08-03T18:22:13.712Z,99864.78
2022-08-03T18:27:16.378Z,99872.72
2022-08-03T18:32:21.449Z,99873.16
2022-08-03T18:37:27.953Z,99875.09
2022-08-03T18:42:32.135Z,99880.22
2022-08-03T18:47:57.549Z,99881.53
2022-08-03T18:53:15.646Z,99874.31
2022-08-03T18:59:03.597Z,99889.91
2022-08-03T19:04:13.317Z,99886.25
2022-08-03T19:09:31.969Z,99902.41
2022-08-03T19:14:42.446Z,99903.28
2022-08-03T19:19:45.612Z,99905.78
2022-08-03T19:24:49.132Z,99901.44
2022-08-03T19:29:58.427Z,99903.09
2022-08-03T19:35:18.698Z,99908.09
2022-08-03T19:40:20.957Z,99896.00
2022-08-03T19:46:04.543Z,99901.91
2022-08-03T19:50:59.158Z,99901.69
2022-08-03T19:56:12.685Z,99904.31
2022-08-03T20:01:19.216Z,99900.69
2022-08-03T20:06:23.671Z,99903.88
2022-08-03T20:11:29.028Z,99903.72
2022-08-03T20:16:31.057Z,99901.72
2022-08-03T20:21:34.955Z,99905.81
2022-08-03T20:26:41.919Z,99900.50
2022-08-03T20:31:45.176Z,99904.50
2022-08-03T20:36:47.091Z,99905.63
2022-08-03T20:41:48.980Z,99902.63
2022-08-03T20:52:18.688Z,99905.50
2022-08-03T20:57:20.907Z,99903.53
2022-08-03T21:02:30.496Z,99893.25
2022-08-03T21:08:03.750Z,99892.41
2022-08-03T21:13:12.649Z,99904.03
2022-08-03T21:13:37.503Z,99900.19
2022-08-03T21:18:46.232Z,99899.59
2022-08-03T21:23:54.815Z,99900.44
2022-08-03T21:28:56.881Z,99892.41
2022-08-03T21:34:02.146Z,99905.63
2022-08-03T21:39:07.365Z,99910.25
2022-08-03T21:44:09.167Z,99910.69
2022-08-03T21:50:07.142Z,99918.28
2022-08-03T21:54:40.825Z,99923.09
2022-08-03T21:59:47.976Z,99921.03
2022-08-03T22:04:55.448Z,99921.88
2022-08-03T22:10:00.669Z,99924.66
2022-08-03T22:15:06.201Z,99929.94
2022-08-03T22:20:10.541Z,99923.56
2022-08-03T22:25:15.940Z,99926.38
2022-08-03T22:30:19.328Z,99928.00
2022-08-03T22:35:23.865Z,99930.69
2022-08-03T22:40:26.722Z,99935.22
2022-08-03T22:46:07.543Z,99928.66
2022-08-03T22:50:50.778Z,99940.09
2022-08-03T22:55:52.934Z,99933.53
2022-08-03T23:00:58.617Z,99931.84
2022-08-03T23:06:03.699Z,99937.25
2022-08-03T23:11:08.690Z,99922.00
2022-08-03T23:16:10.705Z,99918.66
2022-08-03T23:21:12.385Z,99925.75
2022-08-03T23:26:17.655Z,99921.78
2022-08-03T23:31:21.951Z,99926.22
2022-08-03T23:36:31.198Z,99932.31
2022-08-03T23:41:35.455Z,99927.25
2022-08-03T23:46:38.309Z,99914.75
2022-08-03T23:52:03.166Z,99914.94
2022-08-03T23:57:04.945Z,99915.88
